sensor_id;sensor_type;location;lat;lon;timestamp;P1;durP1;ratioP1;P2;durP2;ratioP2
26098;SDS011;13860;52.370;6.764;2023-11-19T00:02:07;15.93;;;8.82;;
26098;SDS011;13860;52.370;6.764;2023-11-19T00:05:12;12.18;;;8.25;;
26098;SDS011;13860;52.370;6.764;2023-11-19T00:08:20;14.13;;;9.38;;
26098;SDS011;13860;52.370;6.764;2023-11-19T00:11:26;17.35;;;9.32;;
26098;SDS011;13860;52.370;6.764;2023-11-19T00:14:36;14.63;;;8.82;;
26098;SDS011;13860;52.370;6.764;2023-11-19T00:17:43;13.13;;;9.23;;
26098;SDS011;13860;52.370;6.764;2023-11-19T00:20:53;13.65;;;9.13;;
26098;SDS011;13860;52.370;6.764;2023-11-19T00:23:58;12.70;;;8.88;;
26098;SDS011;13860;52.370;6.764;2023-11-19T00:27:06;18.15;;;10.65;;
26098;SDS011;13860;52.370;6.764;2023-11-19T00:30:14;22.88;;;10.60;;
26098;SDS011;13860;52.370;6.764;2023-11-19T00:33:22;20.83;;;10.98;;
26098;SDS011;13860;52.370;6.764;2023-11-19T00:36:27;15.00;;;11.15;;
26098;SDS011;13860;52.370;6.764;2023-11-19T00:39:35;18.70;;;11.60;;
26098;SDS011;13860;52.370;6.764;2023-11-19T00:42:40;21.02;;;13.05;;
26098;SDS011;13860;52.370;6.764;2023-11-19T00:45:51;19.95;;;11.95;;
26098;SDS011;13860;52.370;6.764;2023-11-19T00:48:56;24.95;;;12.43;;
26098;SDS011;13860;52.370;6.764;2023-11-19T00:52:05;26.33;;;13.10;;
26098;SDS011;13860;52.370;6.764;2023-11-19T00:55:11;26.45;;;13.57;;
26098;SDS011;13860;52.370;6.764;2023-11-19T00:58:19;25.38;;;12.57;;
26098;SDS011;13860;52.370;6.764;2023-11-19T01:01:27;38.85;;;14.35;;
26098;SDS011;13860;52.370;6.764;2023-11-19T01:04:34;27.98;;;13.63;;
26098;SDS011;13860;52.370;6.764;2023-11-19T01:07:40;29.25;;;13.18;;
26098;SDS011;13860;52.370;6.764;2023-11-19T01:10:48;28.50;;;12.90;;
26098;SDS011;13860;52.370;6.764;2023-11-19T01:13:53;29.33;;;12.93;;
26098;SDS011;13860;52.370;6.764;2023-11-19T01:17:03;30.33;;;12.35;;
26098;SDS011;13860;52.370;6.764;2023-11-19T01:20:11;27.95;;;11.98;;
26098;SDS011;13860;52.370;6.764;2023-11-19T01:23:18;33.13;;;12.75;;
26098;SDS011;13860;52.370;6.764;2023-11-19T01:26:23;23.92;;;11.75;;
26098;SDS011;13860;52.370;6.764;2023-11-19T01:29:31;23.10;;;11.65;;
26098;SDS011;13860;52.370;6.764;2023-11-19T01:32:39;20.20;;;11.50;;
26098;SDS011;13860;52.370;6.764;2023-11-19T01:35:47;25.70;;;11.70;;
26098;SDS011;13860;52.370;6.764;2023-11-19T01:38:52;21.42;;;11.40;;
26098;SDS011;13860;52.370;6.764;2023-11-19T01:42:00;20.45;;;11.60;;
26098;SDS011;13860;52.370;6.764;2023-11-19T01:45:06;32.45;;;11.07;;
26098;SDS011;13860;52.370;6.764;2023-11-19T01:48:17;21.83;;;11.77;;
26098;SDS011;13860;52.370;6.764;2023-11-19T01:51:22;25.60;;;11.57;;
26098;SDS011;13860;52.370;6.764;2023-11-19T01:54:30;23.05;;;10.75;;
26098;SDS011;13860;52.370;6.764;2023-11-19T01:57:35;33.22;;;11.48;;
26098;SDS011;13860;52.370;6.764;2023-11-19T02:00:45;23.00;;;10.07;;
26098;SDS011;13860;52.370;6.764;2023-11-19T02:03:54;27.65;;;10.48;;
26098;SDS011;13860;52.370;6.764;2023-11-19T02:07:02;23.42;;;8.75;;
26098;SDS011;13860;52.370;6.764;2023-11-19T02:10:10;35.72;;;9.13;;
26098;SDS011;13860;52.370;6.764;2023-11-19T02:13:19;24.25;;;7.70;;
26098;SDS011;13860;52.370;6.764;2023-11-19T02:16:24;31.10;;;8.60;;
26098;SDS011;13860;52.370;6.764;2023-11-19T02:19:34;25.55;;;7.45;;
26098;SDS011;13860;52.370;6.764;2023-11-19T02:22:40;28.38;;;7.20;;
26098;SDS011;13860;52.370;6.764;2023-11-19T02:25:52;26.95;;;6.63;;
26098;SDS011;13860;52.370;6.764;2023-11-19T02:29:10;30.27;;;6.97;;
26098;SDS011;13860;52.370;6.764;2023-11-19T02:32:18;24.85;;;6.75;;
26098;SDS011;13860;52.370;6.764;2023-11-19T02:35:26;25.67;;;6.13;;
26098;SDS011;13860;52.370;6.764;2023-11-19T02:38:33;39.55;;;7.32;;
26098;SDS011;13860;52.370;6.764;2023-11-19T02:41:41;27.85;;;6.35;;
26098;SDS011;13860;52.370;6.764;2023-11-19T02:44:49;34.10;;;5.85;;
26098;SDS011;13860;52.370;6.764;2023-11-19T02:47:57;33.45;;;5.25;;
26098;SDS011;13860;52.370;6.764;2023-11-19T02:51:03;41.15;;;4.85;;
26098;SDS011;13860;52.370;6.764;2023-11-19T02:54:14;38.75;;;5.82;;
26098;SDS011;13860;52.370;6.764;2023-11-19T02:57:19;30.45;;;4.80;;
26098;SDS011;13860;52.370;6.764;2023-11-19T03:00:31;28.70;;;4.53;;
26098;SDS011;13860;52.370;6.764;2023-11-19T03:03:39;22.17;;;4.53;;
26098;SDS011;13860;52.370;6.764;2023-11-19T03:06:47;35.42;;;4.57;;
26098;SDS011;13860;52.370;6.764;2023-11-19T03:09:52;28.02;;;3.95;;
26098;SDS011;13860;52.370;6.764;2023-11-19T03:13:00;29.77;;;4.45;;
26098;SDS011;13860;52.370;6.764;2023-11-19T03:16:09;37.72;;;5.07;;
26098;SDS011;13860;52.370;6.764;2023-11-19T03:19:17;29.10;;;5.68;;
26098;SDS011;13860;52.370;6.764;2023-11-19T03:22:27;33.20;;;4.80;;
26098;SDS011;13860;52.370;6.764;2023-11-19T03:25:34;43.58;;;6.38;;
26098;SDS011;13860;52.370;6.764;2023-11-19T03:28:40;27.75;;;4.00;;
26098;SDS011;13860;52.370;6.764;2023-11-19T03:31:50;31.38;;;4.53;;
26098;SDS011;13860;52.370;6.764;2023-11-19T03:34:55;41.25;;;4.90;;
26098;SDS011;13860;52.370;6.764;2023-11-19T03:38:05;47.50;;;6.80;;
26098;SDS011;13860;52.370;6.764;2023-11-19T03:41:10;36.83;;;5.18;;
26098;SDS011;13860;52.370;6.764;2023-11-19T03:44:18;38.58;;;5.22;;
26098;SDS011;13860;52.370;6.764;2023-11-19T03:47:26;35.03;;;4.40;;
26098;SDS011;13860;52.370;6.764;2023-11-19T03:50:34;41.08;;;5.35;;
26098;SDS011;13860;52.370;6.764;2023-11-19T03:53:39;47.70;;;4.85;;
26098;SDS011;13860;52.370;6.764;2023-11-19T03:56:47;35.15;;;4.63;;
26098;SDS011;13860;52.370;6.764;2023-11-19T03:59:52;38.78;;;5.18;;
26098;SDS011;13860;52.370;6.764;2023-11-19T04:03:02;46.40;;;5.32;;
26098;SDS011;13860;52.370;6.764;2023-11-19T04:06:08;40.22;;;4.65;;
26098;SDS011;13860;52.370;6.764;2023-11-19T04:09:16;44.92;;;5.15;;
26098;SDS011;13860;52.370;6.764;2023-11-19T04:12:21;63.55;;;5.72;;
26098;SDS011;13860;52.370;6.764;2023-11-19T04:15:29;45.42;;;6.00;;
26098;SDS011;13860;52.370;6.764;2023-11-19T04:18:36;47.58;;;6.72;;
26098;SDS011;13860;52.370;6.764;2023-11-19T04:21:44;46.97;;;4.57;;
26098;SDS011;13860;52.370;6.764;2023-11-19T04:24:50;39.72;;;5.13;;
26098;SDS011;13860;52.370;6.764;2023-11-19T04:27:58;40.00;;;5.63;;
26098;SDS011;13860;52.370;6.764;2023-11-19T04:31:04;32.80;;;5.47;;
26098;SDS011;13860;52.370;6.764;2023-11-19T04:34:16;45.70;;;5.78;;
26098;SDS011;13860;52.370;6.764;2023-11-19T04:37:21;41.45;;;5.18;;
26098;SDS011;13860;52.370;6.764;2023-11-19T04:40:28;34.80;;;4.32;;
26098;SDS011;13860;52.370;6.764;2023-11-19T04:43:36;45.47;;;6.38;;
26098;SDS011;13860;52.370;6.764;2023-11-19T04:46:43;59.40;;;7.57;;
26098;SDS011;13860;52.370;6.764;2023-11-19T04:49:52;43.53;;;5.25;;
26098;SDS011;13860;52.370;6.764;2023-11-19T04:53:00;31.77;;;4.50;;
26098;SDS011;13860;52.370;6.764;2023-11-19T04:56:08;34.50;;;5.53;;
26098;SDS011;13860;52.370;6.764;2023-11-19T04:59:17;28.15;;;6.13;;
26098;SDS011;13860;52.370;6.764;2023-11-19T05:02:22;47.97;;;7.20;;
26098;SDS011;13860;52.370;6.764;2023-11-19T05:05:32;42.70;;;5.65;;
26098;SDS011;13860;52.370;6.764;2023-11-19T05:08:38;54.45;;;6.15;;
26098;SDS011;13860;52.370;6.764;2023-11-19T05:11:45;45.97;;;6.75;;
26098;SDS011;13860;52.370;6.764;2023-11-19T05:14:52;45.17;;;5.90;;
26098;SDS011;13860;52.370;6.764;2023-11-19T05:18:00;38.88;;;5.97;;
26098;SDS011;13860;52.370;6.764;2023-11-19T05:21:09;50.67;;;6.97;;
26098;SDS011;13860;52.370;6.764;2023-11-19T05:24:16;43.45;;;5.88;;
26098;SDS011;13860;52.370;6.764;2023-11-19T05:27:22;52.95;;;8.02;;
26098;SDS011;13860;52.370;6.764;2023-11-19T05:30:30;34.67;;;6.40;;
26098;SDS011;13860;52.370;6.764;2023-11-19T05:33:36;59.80;;;8.82;;
26098;SDS011;13860;52.370;6.764;2023-11-19T05:36:46;53.55;;;7.80;;
26098;SDS011;13860;52.370;6.764;2023-11-19T05:39:51;60.05;;;5.78;;
26098;SDS011;13860;52.370;6.764;2023-11-19T05:42:59;48.70;;;5.88;;
26098;SDS011;13860;52.370;6.764;2023-11-19T05:46:04;53.33;;;7.25;;
26098;SDS011;13860;52.370;6.764;2023-11-19T05:49:15;44.95;;;6.25;;
26098;SDS011;13860;52.370;6.764;2023-11-19T05:52:24;48.22;;;7.57;;
26098;SDS011;13860;52.370;6.764;2023-11-19T05:55:33;55.90;;;7.50;;
26098;SDS011;13860;52.370;6.764;2023-11-19T05:58:46;51.40;;;7.65;;
26098;SDS011;13860;52.370;6.764;2023-11-19T06:01:54;52.90;;;7.38;;
26098;SDS011;13860;52.370;6.764;2023-11-19T06:05:02;63.15;;;7.65;;
26098;SDS011;13860;52.370;6.764;2023-11-19T06:08:12;56.35;;;7.78;;
26098;SDS011;13860;52.370;6.764;2023-11-19T06:11:18;45.08;;;6.00;;
26098;SDS011;13860;52.370;6.764;2023-11-19T06:14:28;40.67;;;6.22;;
26098;SDS011;13860;52.370;6.764;2023-11-19T06:17:33;44.42;;;5.72;;
26098;SDS011;13860;52.370;6.764;2023-11-19T06:20:41;49.33;;;7.35;;
26098;SDS011;13860;52.370;6.764;2023-11-19T06:23:49;43.60;;;8.18;;
26098;SDS011;13860;52.370;6.764;2023-11-19T06:26:57;43.55;;;5.65;;
26098;SDS011;13860;52.370;6.764;2023-11-19T06:30:03;51.35;;;7.20;;
26098;SDS011;13860;52.370;6.764;2023-11-19T06:33:12;56.10;;;9.65;;
26098;SDS011;13860;52.370;6.764;2023-11-19T06:36:17;47.72;;;6.18;;
26098;SDS011;13860;52.370;6.764;2023-11-19T06:39:28;45.45;;;5.40;;
26098;SDS011;13860;52.370;6.764;2023-11-19T06:42:33;62.42;;;7.00;;
26098;SDS011;13860;52.370;6.764;2023-11-19T06:45:40;43.20;;;7.45;;
26098;SDS011;13860;52.370;6.764;2023-11-19T06:48:46;51.03;;;7.30;;
26098;SDS011;13860;52.370;6.764;2023-11-19T06:51:53;57.80;;;7.32;;
26098;SDS011;13860;52.370;6.764;2023-11-19T06:55:01;57.05;;;7.43;;
26098;SDS011;13860;52.370;6.764;2023-11-19T06:58:11;56.65;;;7.93;;
26098;SDS011;13860;52.370;6.764;2023-11-19T07:01:17;51.70;;;7.38;;
26098;SDS011;13860;52.370;6.764;2023-11-19T07:04:25;50.25;;;6.40;;
26098;SDS011;13860;52.370;6.764;2023-11-19T07:07:30;45.17;;;6.85;;
26098;SDS011;13860;52.370;6.764;2023-11-19T07:10:42;52.05;;;7.38;;
26098;SDS011;13860;52.370;6.764;2023-11-19T07:13:49;48.60;;;6.55;;
26098;SDS011;13860;52.370;6.764;2023-11-19T07:16:56;45.80;;;6.60;;
26098;SDS011;13860;52.370;6.764;2023-11-19T07:20:02;43.72;;;6.90;;
26098;SDS011;13860;52.370;6.764;2023-11-19T07:23:10;56.22;;;7.53;;
26098;SDS011;13860;52.370;6.764;2023-11-19T07:26:20;49.63;;;6.65;;
26098;SDS011;13860;52.370;6.764;2023-11-19T07:29:28;56.28;;;6.78;;
26098;SDS011;13860;52.370;6.764;2023-11-19T07:32:33;66.40;;;7.93;;
26098;SDS011;13860;52.370;6.764;2023-11-19T07:35:43;52.40;;;6.03;;
26098;SDS011;13860;52.370;6.764;2023-11-19T07:38:48;51.00;;;7.82;;
26098;SDS011;13860;52.370;6.764;2023-11-19T07:41:58;49.15;;;6.95;;
26098;SDS011;13860;52.370;6.764;2023-11-19T07:45:04;43.42;;;6.43;;
26098;SDS011;13860;52.370;6.764;2023-11-19T07:48:13;44.35;;;6.03;;
26098;SDS011;13860;52.370;6.764;2023-11-19T07:51:20;45.55;;;6.57;;
26098;SDS011;13860;52.370;6.764;2023-11-19T07:54:27;49.42;;;7.20;;
26098;SDS011;13860;52.370;6.764;2023-11-19T07:57:35;59.78;;;7.32;;
26098;SDS011;13860;52.370;6.764;2023-11-19T08:00:42;60.90;;;7.07;;
26098;SDS011;13860;52.370;6.764;2023-11-19T08:03:48;58.55;;;8.30;;
26098;SDS011;13860;52.370;6.764;2023-11-19T08:06:58;54.15;;;7.32;;
26098;SDS011;13860;52.370;6.764;2023-11-19T08:10:04;49.90;;;7.15;;
26098;SDS011;13860;52.370;6.764;2023-11-19T08:13:16;46.70;;;6.05;;
26098;SDS011;13860;52.370;6.764;2023-11-19T08:16:22;52.60;;;9.18;;
26098;SDS011;13860;52.370;6.764;2023-11-19T08:19:30;39.15;;;6.38;;
26098;SDS011;13860;52.370;6.764;2023-11-19T08:22:35;47.13;;;6.63;;
26098;SDS011;13860;52.370;6.764;2023-11-19T08:25:43;51.60;;;7.35;;
26098;SDS011;13860;52.370;6.764;2023-11-19T08:28:51;48.40;;;6.28;;
26098;SDS011;13860;52.370;6.764;2023-11-19T08:31:59;37.83;;;5.85;;
26098;SDS011;13860;52.370;6.764;2023-11-19T08:35:05;42.42;;;6.55;;
26098;SDS011;13860;52.370;6.764;2023-11-19T08:38:14;59.25;;;5.80;;
26098;SDS011;13860;52.370;6.764;2023-11-19T08:41:32;45.70;;;7.22;;
26098;SDS011;13860;52.370;6.764;2023-11-19T08:44:45;59.65;;;8.63;;
26098;SDS011;13860;52.370;6.764;2023-11-19T08:51:04;57.22;;;7.57;;
26098;SDS011;13860;52.370;6.764;2023-11-19T08:54:10;55.17;;;6.85;;
26098;SDS011;13860;52.370;6.764;2023-11-19T08:57:18;42.45;;;5.80;;
26098;SDS011;13860;52.370;6.764;2023-11-19T09:00:25;40.22;;;5.60;;
26098;SDS011;13860;52.370;6.764;2023-11-19T09:03:33;44.67;;;6.32;;
26098;SDS011;13860;52.370;6.764;2023-11-19T09:06:39;42.60;;;5.80;;
26098;SDS011;13860;52.370;6.764;2023-11-19T09:09:48;46.25;;;6.82;;
26098;SDS011;13860;52.370;6.764;2023-11-19T09:12:53;55.90;;;7.03;;
26098;SDS011;13860;52.370;6.764;2023-11-19T09:16:04;63.53;;;6.45;;
26098;SDS011;13860;52.370;6.764;2023-11-19T09:19:10;45.17;;;6.07;;
26098;SDS011;13860;52.370;6.764;2023-11-19T09:22:18;54.33;;;7.85;;
26098;SDS011;13860;52.370;6.764;2023-11-19T09:25:24;51.38;;;8.20;;
26098;SDS011;13860;52.370;6.764;2023-11-19T09:28:48;57.30;;;7.13;;
26098;SDS011;13860;52.370;6.764;2023-11-19T09:31:56;51.33;;;6.55;;
26098;SDS011;13860;52.370;6.764;2023-11-19T09:35:04;53.22;;;6.38;;
26098;SDS011;13860;52.370;6.764;2023-11-19T09:38:10;56.00;;;7.03;;
26098;SDS011;13860;52.370;6.764;2023-11-19T09:41:18;40.38;;;8.98;;
26098;SDS011;13860;52.370;6.764;2023-11-19T09:44:23;53.30;;;6.90;;
26098;SDS011;13860;52.370;6.764;2023-11-19T09:47:34;38.67;;;6.95;;
26098;SDS011;13860;52.370;6.764;2023-11-19T09:50:39;45.67;;;7.28;;
26098;SDS011;13860;52.370;6.764;2023-11-19T09:53:48;32.67;;;6.25;;
26098;SDS011;13860;52.370;6.764;2023-11-19T09:56:54;44.53;;;5.10;;
26098;SDS011;13860;52.370;6.764;2023-11-19T10:00:07;44.47;;;6.88;;
26098;SDS011;13860;52.370;6.764;2023-11-19T10:03:18;42.47;;;5.78;;
26098;SDS011;13860;52.370;6.764;2023-11-19T10:06:26;51.92;;;8.02;;
26098;SDS011;13860;52.370;6.764;2023-11-19T10:09:31;39.72;;;5.75;;
26098;SDS011;13860;52.370;6.764;2023-11-19T10:12:39;42.78;;;6.47;;
26098;SDS011;13860;52.370;6.764;2023-11-19T10:15:47;44.83;;;6.25;;
26098;SDS011;13860;52.370;6.764;2023-11-19T10:18:58;51.72;;;7.35;;
26098;SDS011;13860;52.370;6.764;2023-11-19T10:22:04;63.88;;;8.52;;
26098;SDS011;13860;52.370;6.764;2023-11-19T10:25:24;40.63;;;5.32;;
26098;SDS011;13860;52.370;6.764;2023-11-19T10:28:36;51.00;;;7.45;;
26098;SDS011;13860;52.370;6.764;2023-11-19T10:31:55;52.00;;;7.03;;
26098;SDS011;13860;52.370;6.764;2023-11-19T10:35:24;44.08;;;6.25;;
26098;SDS011;13860;52.370;6.764;2023-11-19T10:38:31;32.42;;;5.35;;
26098;SDS011;13860;52.370;6.764;2023-11-19T10:41:36;42.00;;;6.47;;
26098;SDS011;13860;52.370;6.764;2023-11-19T10:44:45;53.05;;;8.18;;
26098;SDS011;13860;52.370;6.764;2023-11-19T10:47:51;43.78;;;7.55;;
26098;SDS011;13860;52.370;6.764;2023-11-19T10:51:01;45.85;;;6.53;;
26098;SDS011;13860;52.370;6.764;2023-11-19T10:54:12;48.08;;;6.85;;
26098;SDS011;13860;52.370;6.764;2023-11-19T10:57:24;38.53;;;5.10;;
26098;SDS011;13860;52.370;6.764;2023-11-19T11:00:37;41.72;;;6.80;;
26098;SDS011;13860;52.370;6.764;2023-11-19T11:03:46;43.63;;;5.50;;
26098;SDS011;13860;52.370;6.764;2023-11-19T11:06:56;53.90;;;7.53;;
26098;SDS011;13860;52.370;6.764;2023-11-19T11:10:07;32.03;;;4.13;;
26098;SDS011;13860;52.370;6.764;2023-11-19T11:13:13;44.78;;;5.85;;
26098;SDS011;13860;52.370;6.764;2023-11-19T11:16:21;45.80;;;6.50;;
26098;SDS011;13860;52.370;6.764;2023-11-19T11:19:28;45.83;;;7.15;;
26098;SDS011;13860;52.370;6.764;2023-11-19T11:22:41;53.38;;;5.85;;
26098;SDS011;13860;52.370;6.764;2023-11-19T11:25:57;55.33;;;6.72;;
26098;SDS011;13860;52.370;6.764;2023-11-19T11:29:14;49.10;;;6.30;;
26098;SDS011;13860;52.370;6.764;2023-11-19T11:32:30;39.55;;;6.80;;
26098;SDS011;13860;52.370;6.764;2023-11-19T11:35:43;35.63;;;6.10;;
26098;SDS011;13860;52.370;6.764;2023-11-19T11:39:00;42.60;;;5.78;;
26098;SDS011;13860;52.370;6.764;2023-11-19T11:45:36;45.25;;;7.45;;
26098;SDS011;13860;52.370;6.764;2023-11-19T11:48:47;44.45;;;6.50;;
26098;SDS011;13860;52.370;6.764;2023-11-19T11:51:57;46.10;;;6.20;;
26098;SDS011;13860;52.370;6.764;2023-11-19T11:55:10;56.08;;;6.13;;
26098;SDS011;13860;52.370;6.764;2023-11-19T11:58:17;37.42;;;5.70;;
26098;SDS011;13860;52.370;6.764;2023-11-19T12:01:25;39.95;;;5.90;;
26098;SDS011;13860;52.370;6.764;2023-11-19T12:04:31;34.10;;;5.30;;
26098;SDS011;13860;52.370;6.764;2023-11-19T12:07:41;35.40;;;5.55;;
26098;SDS011;13860;52.370;6.764;2023-11-19T12:11:03;33.55;;;4.88;;
26098;SDS011;13860;52.370;6.764;2023-11-19T12:14:12;34.63;;;5.45;;
26098;SDS011;13860;52.370;6.764;2023-11-19T12:20:54;43.55;;;6.18;;
26098;SDS011;13860;52.370;6.764;2023-11-19T12:24:02;30.67;;;4.55;;
26098;SDS011;13860;52.370;6.764;2023-11-19T12:27:14;30.65;;;4.82;;
26098;SDS011;13860;52.370;6.764;2023-11-19T12:30:21;42.35;;;6.38;;
26098;SDS011;13860;52.370;6.764;2023-11-19T12:33:31;34.42;;;5.78;;
26098;SDS011;13860;52.370;6.764;2023-11-19T12:36:36;39.72;;;5.85;;
26098;SDS011;13860;52.370;6.764;2023-11-19T12:39:45;21.25;;;3.25;;
26098;SDS011;13860;52.370;6.764;2023-11-19T12:42:54;36.00;;;4.82;;
26098;SDS011;13860;52.370;6.764;2023-11-19T12:46:02;25.30;;;3.65;;
26098;SDS011;13860;52.370;6.764;2023-11-19T12:49:07;32.75;;;4.15;;
26098;SDS011;13860;52.370;6.764;2023-11-19T12:52:18;40.50;;;4.57;;
26098;SDS011;13860;52.370;6.764;2023-11-19T12:55:25;34.90;;;5.43;;
26098;SDS011;13860;52.370;6.764;2023-11-19T12:58:39;30.02;;;3.42;;
26098;SDS011;13860;52.370;6.764;2023-11-19T13:01:53;34.92;;;4.90;;
26098;SDS011;13860;52.370;6.764;2023-11-19T13:11:34;40.83;;;5.15;;
26098;SDS011;13860;52.370;6.764;2023-11-19T13:14:45;35.47;;;4.78;;
26098;SDS011;13860;52.370;6.764;2023-11-19T13:17:53;36.95;;;5.20;;
26098;SDS011;13860;52.370;6.764;2023-11-19T13:20:59;29.00;;;5.30;;
26098;SDS011;13860;52.370;6.764;2023-11-19T13:24:07;30.08;;;5.25;;
26098;SDS011;13860;52.370;6.764;2023-11-19T13:27:13;40.92;;;5.45;;
26098;SDS011;13860;52.370;6.764;2023-11-19T13:30:23;34.85;;;5.45;;
26098;SDS011;13860;52.370;6.764;2023-11-19T13:33:29;33.03;;;4.07;;
26098;SDS011;13860;52.370;6.764;2023-11-19T13:36:37;29.13;;;4.38;;
26098;SDS011;13860;52.370;6.764;2023-11-19T13:39:43;38.97;;;5.03;;
26098;SDS011;13860;52.370;6.764;2023-11-19T13:42:50;33.72;;;4.82;;
26098;SDS011;13860;52.370;6.764;2023-11-19T13:45:58;37.85;;;5.03;;
26098;SDS011;13860;52.370;6.764;2023-11-19T13:49:05;29.92;;;5.38;;
26098;SDS011;13860;52.370;6.764;2023-11-19T13:52:12;31.88;;;5.20;;
26098;SDS011;13860;52.370;6.764;2023-11-19T13:55:19;37.20;;;5.22;;
26098;SDS011;13860;52.370;6.764;2023-11-19T13:58:25;40.17;;;5.20;;
26098;SDS011;13860;52.370;6.764;2023-11-19T14:01:35;27.80;;;4.45;;
26098;SDS011;13860;52.370;6.764;2023-11-19T14:04:40;30.38;;;5.88;;
26098;SDS011;13860;52.370;6.764;2023-11-19T14:07:48;31.80;;;4.60;;
26098;SDS011;13860;52.370;6.764;2023-11-19T14:10:53;36.30;;;5.57;;
26098;SDS011;13860;52.370;6.764;2023-11-19T14:14:04;30.00;;;4.75;;
26098;SDS011;13860;52.370;6.764;2023-11-19T14:17:12;28.13;;;4.25;;
26098;SDS011;13860;52.370;6.764;2023-11-19T14:20:20;37.10;;;5.10;;
26098;SDS011;13860;52.370;6.764;2023-11-19T14:23:26;34.00;;;5.13;;
26098;SDS011;13860;52.370;6.764;2023-11-19T14:26:33;36.40;;;4.38;;
26098;SDS011;13860;52.370;6.764;2023-11-19T14:29:39;27.92;;;5.32;;
26098;SDS011;13860;52.370;6.764;2023-11-19T14:32:49;32.72;;;4.30;;
26098;SDS011;13860;52.370;6.764;2023-11-19T14:35:56;21.00;;;4.32;;
26098;SDS011;13860;52.370;6.764;2023-11-19T14:39:03;31.95;;;4.90;;
26098;SDS011;13860;52.370;6.764;2023-11-19T14:42:09;29.83;;;4.55;;
26098;SDS011;13860;52.370;6.764;2023-11-19T14:45:17;38.10;;;4.40;;
26098;SDS011;13860;52.370;6.764;2023-11-19T14:48:26;34.65;;;3.88;;
26098;SDS011;13860;52.370;6.764;2023-11-19T14:51:35;36.03;;;5.88;;
26098;SDS011;13860;52.370;6.764;2023-11-19T14:54:40;31.77;;;5.38;;
26098;SDS011;13860;52.370;6.764;2023-11-19T14:57:48;37.13;;;5.75;;
26098;SDS011;13860;52.370;6.764;2023-11-19T15:01:10;36.35;;;5.38;;
26098;SDS011;13860;52.370;6.764;2023-11-19T15:04:22;31.55;;;4.82;;
26098;SDS011;13860;52.370;6.764;2023-11-19T15:07:27;31.63;;;5.40;;
26098;SDS011;13860;52.370;6.764;2023-11-19T15:10:35;36.63;;;5.43;;
26098;SDS011;13860;52.370;6.764;2023-11-19T15:13:41;26.42;;;5.35;;
26098;SDS011;13860;52.370;6.764;2023-11-19T15:16:49;34.03;;;5.60;;
26098;SDS011;13860;52.370;6.764;2023-11-19T15:19:59;25.48;;;4.55;;
26098;SDS011;13860;52.370;6.764;2023-11-19T15:23:06;21.48;;;3.63;;
26098;SDS011;13860;52.370;6.764;2023-11-19T15:26:12;18.75;;;3.47;;
26098;SDS011;13860;52.370;6.764;2023-11-19T15:29:19;26.15;;;4.53;;
26098;SDS011;13860;52.370;6.764;2023-11-19T15:32:25;28.65;;;4.53;;
26098;SDS011;13860;52.370;6.764;2023-11-19T15:35:38;24.02;;;3.33;;
26098;SDS011;13860;52.370;6.764;2023-11-19T15:38:44;20.48;;;3.65;;
26098;SDS011;13860;52.370;6.764;2023-11-19T15:41:56;30.10;;;4.07;;
26098;SDS011;13860;52.370;6.764;2023-11-19T15:45:01;22.17;;;3.83;;
26098;SDS011;13860;52.370;6.764;2023-11-19T15:48:11;26.38;;;3.85;;
26098;SDS011;13860;52.370;6.764;2023-11-19T15:51:19;27.38;;;3.45;;
26098;SDS011;13860;52.370;6.764;2023-11-19T15:54:26;32.00;;;4.20;;
26098;SDS011;13860;52.370;6.764;2023-11-19T15:57:32;30.50;;;4.75;;
26098;SDS011;13860;52.370;6.764;2023-11-19T16:00:39;24.77;;;3.95;;
26098;SDS011;13860;52.370;6.764;2023-11-19T16:03:48;22.25;;;3.88;;
26098;SDS011;13860;52.370;6.764;2023-11-19T16:06:58;28.98;;;4.32;;
26098;SDS011;13860;52.370;6.764;2023-11-19T16:10:05;35.42;;;4.75;;
26098;SDS011;13860;52.370;6.764;2023-11-19T16:13:15;28.92;;;6.05;;
26098;SDS011;13860;52.370;6.764;2023-11-19T16:16:21;35.50;;;4.95;;
26098;SDS011;13860;52.370;6.764;2023-11-19T16:19:28;37.38;;;4.30;;
26098;SDS011;13860;52.370;6.764;2023-11-19T16:22:39;30.35;;;4.70;;
26098;SDS011;13860;52.370;6.764;2023-11-19T16:25:46;29.02;;;4.13;;
26098;SDS011;13860;52.370;6.764;2023-11-19T16:28:52;33.90;;;4.93;;
26098;SDS011;13860;52.370;6.764;2023-11-19T16:32:00;28.73;;;3.75;;
26098;SDS011;13860;52.370;6.764;2023-11-19T16:35:06;55.00;;;5.82;;
26098;SDS011;13860;52.370;6.764;2023-11-19T16:38:17;29.05;;;4.40;;
26098;SDS011;13860;52.370;6.764;2023-11-19T16:41:22;37.70;;;4.95;;
26098;SDS011;13860;52.370;6.764;2023-11-19T16:44:44;29.02;;;4.15;;
26098;SDS011;13860;52.370;6.764;2023-11-19T16:47:50;41.50;;;6.10;;
26098;SDS011;13860;52.370;6.764;2023-11-19T16:50:57;33.88;;;5.72;;
26098;SDS011;13860;52.370;6.764;2023-11-19T16:54:08;30.10;;;4.50;;
26098;SDS011;13860;52.370;6.764;2023-11-19T16:57:16;41.00;;;6.28;;
26098;SDS011;13860;52.370;6.764;2023-11-19T17:00:24;41.17;;;5.28;;
26098;SDS011;13860;52.370;6.764;2023-11-19T17:03:32;27.05;;;4.70;;
26098;SDS011;13860;52.370;6.764;2023-11-19T17:06:37;33.13;;;4.63;;
26098;SDS011;13860;52.370;6.764;2023-11-19T17:09:47;34.60;;;4.43;;
26098;SDS011;13860;52.370;6.764;2023-11-19T17:12:53;31.25;;;5.13;;
26098;SDS011;13860;52.370;6.764;2023-11-19T17:16:00;32.53;;;4.10;;
26098;SDS011;13860;52.370;6.764;2023-11-19T17:19:08;32.88;;;4.30;;
26098;SDS011;13860;52.370;6.764;2023-11-19T17:22:16;34.78;;;3.95;;
26098;SDS011;13860;52.370;6.764;2023-11-19T17:25:24;35.58;;;4.68;;
26098;SDS011;13860;52.370;6.764;2023-11-19T17:28:32;44.15;;;5.47;;
26098;SDS011;13860;52.370;6.764;2023-11-19T17:31:37;26.38;;;4.47;;
26098;SDS011;13860;52.370;6.764;2023-11-19T17:34:45;29.88;;;4.43;;
26098;SDS011;13860;52.370;6.764;2023-11-19T17:37:51;28.83;;;3.83;;
26098;SDS011;13860;52.370;6.764;2023-11-19T17:41:01;37.95;;;4.20;;
26098;SDS011;13860;52.370;6.764;2023-11-19T17:44:07;24.95;;;3.63;;
26098;SDS011;13860;52.370;6.764;2023-11-19T17:47:14;33.85;;;4.53;;
26098;SDS011;13860;52.370;6.764;2023-11-19T17:50:20;25.08;;;3.58;;
26098;SDS011;13860;52.370;6.764;2023-11-19T17:53:29;27.23;;;3.78;;
26098;SDS011;13860;52.370;6.764;2023-11-19T17:56:39;29.10;;;3.95;;
26098;SDS011;13860;52.370;6.764;2023-11-19T17:59:48;23.80;;;4.22;;
26098;SDS011;13860;52.370;6.764;2023-11-19T18:02:54;28.83;;;3.88;;
26098;SDS011;13860;52.370;6.764;2023-11-19T18:06:05;25.35;;;4.28;;
26098;SDS011;13860;52.370;6.764;2023-11-19T18:09:19;30.95;;;5.40;;
26098;SDS011;13860;52.370;6.764;2023-11-19T18:12:29;37.67;;;4.43;;
26098;SDS011;13860;52.370;6.764;2023-11-19T18:15:35;26.70;;;3.92;;
26098;SDS011;13860;52.370;6.764;2023-11-19T18:18:43;22.67;;;4.70;;
26098;SDS011;13860;52.370;6.764;2023-11-19T18:21:49;25.27;;;3.22;;
26098;SDS011;13860;52.370;6.764;2023-11-19T18:24:56;24.17;;;3.80;;
26098;SDS011;13860;52.370;6.764;2023-11-19T18:28:04;17.88;;;3.45;;
26098;SDS011;13860;52.370;6.764;2023-11-19T18:31:12;20.30;;;3.17;;
26098;SDS011;13860;52.370;6.764;2023-11-19T18:34:18;20.73;;;3.95;;
26098;SDS011;13860;52.370;6.764;2023-11-19T18:37:25;22.30;;;4.07;;
26098;SDS011;13860;52.370;6.764;2023-11-19T18:40:31;17.38;;;4.20;;
26098;SDS011;13860;52.370;6.764;2023-11-19T18:43:41;31.70;;;4.47;;
26098;SDS011;13860;52.370;6.764;2023-11-19T18:46:46;24.40;;;3.15;;
26098;SDS011;13860;52.370;6.764;2023-11-19T18:49:54;18.73;;;4.43;;
26098;SDS011;13860;52.370;6.764;2023-11-19T18:52:59;15.73;;;3.40;;